sensor_id;sensor_type;location;lat;lon;timestamp;P1;durP1;ratioP1;P2;durP2;ratioP2
75386;SDS011;63966;47.914;22.266;2022-12-18T00:01:59;34.53;;;12.35;;
75386;SDS011;63966;47.914;22.266;2022-12-18T00:05:03;38.50;;;14.07;;
75386;SDS011;63966;47.914;22.266;2022-12-18T00:08:07;38.95;;;12.27;;
75386;SDS011;63966;47.914;22.266;2022-12-18T00:11:12;32.55;;;12.32;;
75386;SDS011;63966;47.914;22.266;2022-12-18T00:14:17;37.90;;;13.90;;
75386;SDS011;63966;47.914;22.266;2022-12-18T00:17:20;36.70;;;13.40;;
75386;SDS011;63966;47.914;22.266;2022-12-18T00:20:23;27.67;;;10.90;;
75386;SDS011;63966;47.914;22.266;2022-12-18T00:23:28;38.90;;;14.33;;
75386;SDS011;63966;47.914;22.266;2022-12-18T00:26:33;35.92;;;12.60;;
75386;SDS011;63966;47.914;22.266;2022-12-18T00:29:41;44.13;;;13.77;;
75386;SDS011;63966;47.914;22.266;2022-12-18T00:32:44;39.20;;;13.57;;
75386;SDS011;63966;47.914;22.266;2022-12-18T00:35:47;43.87;;;14.23;;
75386;SDS011;63966;47.914;22.266;2022-12-18T00:38:52;43.58;;;15.30;;
75386;SDS011;63966;47.914;22.266;2022-12-18T00:41:57;40.33;;;14.65;;
75386;SDS011;63966;47.914;22.266;2022-12-18T00:45:19;42.50;;;14.70;;
75386;SDS011;63966;47.914;22.266;2022-12-18T00:48:22;43.45;;;14.93;;
75386;SDS011;63966;47.914;22.266;2022-12-18T00:51:26;51.50;;;16.70;;
75386;SDS011;63966;47.914;22.266;2022-12-18T00:54:29;42.30;;;13.93;;
75386;SDS011;63966;47.914;22.266;2022-12-18T00:57:33;38.47;;;12.73;;
75386;SDS011;63966;47.914;22.266;2022-12-18T01:00:37;44.40;;;13.88;;
75386;SDS011;63966;47.914;22.266;2022-12-18T01:03:40;44.25;;;15.57;;
75386;SDS011;63966;47.914;22.266;2022-12-18T01:06:44;41.73;;;14.00;;
75386;SDS011;63966;47.914;22.266;2022-12-18T01:09:47;42.13;;;14.52;;
75386;SDS011;63966;47.914;22.266;2022-12-18T01:12:51;45.30;;;14.98;;
75386;SDS011;63966;47.914;22.266;2022-12-18T01:15:54;48.63;;;15.90;;
75386;SDS011;63966;47.914;22.266;2022-12-18T01:18:58;47.00;;;16.85;;
75386;SDS011;63966;47.914;22.266;2022-12-18T01:22:02;45.13;;;14.88;;
75386;SDS011;63966;47.914;22.266;2022-12-18T01:25:05;35.72;;;12.98;;
75386;SDS011;63966;47.914;22.266;2022-12-18T01:28:09;46.93;;;16.10;;
75386;SDS011;63966;47.914;22.266;2022-12-18T01:31:15;46.80;;;15.05;;
75386;SDS011;63966;47.914;22.266;2022-12-18T01:34:23;46.67;;;15.93;;
75386;SDS011;63966;47.914;22.266;2022-12-18T01:37:27;43.07;;;14.47;;
75386;SDS011;63966;47.914;22.266;2022-12-18T01:40:31;54.15;;;15.93;;
75386;SDS011;63966;47.914;22.266;2022-12-18T01:43:41;43.28;;;14.07;;
75386;SDS011;63966;47.914;22.266;2022-12-18T01:47:01;42.75;;;14.55;;
75386;SDS011;63966;47.914;22.266;2022-12-18T01:50:10;43.27;;;14.50;;
75386;SDS011;63966;47.914;22.266;2022-12-18T01:53:37;40.47;;;13.32;;
75386;SDS011;63966;47.914;22.266;2022-12-18T01:56:43;41.63;;;14.55;;
75386;SDS011;63966;47.914;22.266;2022-12-18T01:59:48;26.87;;;8.90;;
75386;SDS011;63966;47.914;22.266;2022-12-18T02:02:54;33.90;;;11.00;;
75386;SDS011;63966;47.914;22.266;2022-12-18T02:06:00;33.72;;;13.23;;
75386;SDS011;63966;47.914;22.266;2022-12-18T02:09:22;34.65;;;12.05;;
75386;SDS011;63966;47.914;22.266;2022-12-18T02:12:35;38.40;;;11.53;;
75386;SDS011;63966;47.914;22.266;2022-12-18T02:16:43;33.65;;;12.05;;
75386;SDS011;63966;47.914;22.266;2022-12-18T02:22:53;39.60;;;13.80;;
75386;SDS011;63966;47.914;22.266;2022-12-18T02:26:27;40.58;;;13.77;;
75386;SDS011;63966;47.914;22.266;2022-12-18T02:29:46;43.95;;;15.02;;
75386;SDS011;63966;47.914;22.266;2022-12-18T02:33:03;42.53;;;14.23;;
75386;SDS011;63966;47.914;22.266;2022-12-18T02:36:09;30.87;;;12.17;;
75386;SDS011;63966;47.914;22.266;2022-12-18T02:39:17;34.28;;;11.48;;
75386;SDS011;63966;47.914;22.266;2022-12-18T02:42:32;40.05;;;13.98;;
75386;SDS011;63966;47.914;22.266;2022-12-18T02:45:51;44.03;;;11.48;;
75386;SDS011;63966;47.914;22.266;2022-12-18T02:59:19;40.03;;;14.03;;
75386;SDS011;63966;47.914;22.266;2022-12-18T03:02:45;38.20;;;13.88;;
75386;SDS011;63966;47.914;22.266;2022-12-18T03:05:51;42.17;;;14.25;;
75386;SDS011;63966;47.914;22.266;2022-12-18T03:09:02;37.67;;;13.43;;
75386;SDS011;63966;47.914;22.266;2022-12-18T03:12:24;36.60;;;13.13;;
75386;SDS011;63966;47.914;22.266;2022-12-18T03:15:39;37.00;;;13.23;;
75386;SDS011;63966;47.914;22.266;2022-12-18T03:18:54;40.15;;;12.68;;
75386;SDS011;63966;47.914;22.266;2022-12-18T03:22:16;31.35;;;10.38;;
75386;SDS011;63966;47.914;22.266;2022-12-18T03:25:25;35.67;;;12.13;;
75386;SDS011;63966;47.914;22.266;2022-12-18T03:28:30;25.33;;;10.68;;
75386;SDS011;63966;47.914;22.266;2022-12-18T03:31:40;37.20;;;12.23;;
75386;SDS011;63966;47.914;22.266;2022-12-18T03:34:44;32.47;;;11.88;;
75386;SDS011;63966;47.914;22.266;2022-12-18T03:37:55;41.17;;;12.40;;
75386;SDS011;63966;47.914;22.266;2022-12-18T03:41:28;25.67;;;9.83;;
75386;SDS011;63966;47.914;22.266;2022-12-18T03:45:03;28.55;;;9.80;;
75386;SDS011;63966;47.914;22.266;2022-12-18T03:48:52;38.97;;;12.32;;
75386;SDS011;63966;47.914;22.266;2022-12-18T03:52:04;29.77;;;11.80;;
75386;SDS011;63966;47.914;22.266;2022-12-18T03:55:13;28.33;;;9.75;;
75386;SDS011;63966;47.914;22.266;2022-12-18T03:58:20;40.10;;;12.20;;
75386;SDS011;63966;47.914;22.266;2022-12-18T04:01:45;42.80;;;14.13;;
75386;SDS011;63966;47.914;22.266;2022-12-18T04:04:52;41.73;;;12.80;;
75386;SDS011;63966;47.914;22.266;2022-12-18T04:07:59;38.63;;;13.27;;
75386;SDS011;63966;47.914;22.266;2022-12-18T04:11:03;34.92;;;12.77;;
75386;SDS011;63966;47.914;22.266;2022-12-18T04:14:08;37.70;;;13.50;;
75386;SDS011;63966;47.914;22.266;2022-12-18T04:17:18;40.47;;;12.60;;
75386;SDS011;63966;47.914;22.266;2022-12-18T04:20:23;26.83;;;8.93;;
75386;SDS011;63966;47.914;22.266;2022-12-18T04:23:27;37.08;;;11.75;;
75386;SDS011;63966;47.914;22.266;2022-12-18T04:26:33;47.63;;;15.52;;
75386;SDS011;63966;47.914;22.266;2022-12-18T04:29:46;33.80;;;12.80;;
75386;SDS011;63966;47.914;22.266;2022-12-18T04:32:50;45.15;;;15.93;;
75386;SDS011;63966;47.914;22.266;2022-12-18T04:35:55;42.17;;;14.03;;
75386;SDS011;63966;47.914;22.266;2022-12-18T04:38:59;50.92;;;15.77;;
75386;SDS011;63966;47.914;22.266;2022-12-18T04:42:03;43.95;;;15.23;;
75386;SDS011;63966;47.914;22.266;2022-12-18T04:45:07;42.33;;;14.10;;
75386;SDS011;63966;47.914;22.266;2022-12-18T04:48:11;48.92;;;16.90;;
75386;SDS011;63966;47.914;22.266;2022-12-18T04:51:14;38.40;;;13.45;;
75386;SDS011;63966;47.914;22.266;2022-12-18T04:54:21;52.88;;;15.82;;
75386;SDS011;63966;47.914;22.266;2022-12-18T04:57:25;49.75;;;15.65;;
75386;SDS011;63966;47.914;22.266;2022-12-18T05:00:28;49.42;;;17.02;;
75386;SDS011;63966;47.914;22.266;2022-12-18T05:03:32;47.00;;;15.07;;
75386;SDS011;63966;47.914;22.266;2022-12-18T05:06:36;47.60;;;15.87;;
75386;SDS011;63966;47.914;22.266;2022-12-18T05:09:39;54.20;;;15.35;;
75386;SDS011;63966;47.914;22.266;2022-12-18T05:12:43;53.85;;;15.68;;
75386;SDS011;63966;47.914;22.266;2022-12-18T05:16:02;50.97;;;15.73;;
75386;SDS011;63966;47.914;22.266;2022-12-18T05:19:06;56.50;;;16.00;;
75386;SDS011;63966;47.914;22.266;2022-12-18T05:22:10;44.05;;;14.63;;
75386;SDS011;63966;47.914;22.266;2022-12-18T05:25:13;36.97;;;14.45;;
75386;SDS011;63966;47.914;22.266;2022-12-18T05:28:17;39.38;;;11.75;;
75386;SDS011;63966;47.914;22.266;2022-12-18T05:31:21;47.42;;;14.63;;
75386;SDS011;63966;47.914;22.266;2022-12-18T05:34:25;60.75;;;17.27;;
75386;SDS011;63966;47.914;22.266;2022-12-18T05:37:28;49.50;;;14.83;;
75386;SDS011;63966;47.914;22.266;2022-12-18T05:40:32;33.22;;;11.98;;
75386;SDS011;63966;47.914;22.266;2022-12-18T05:43:36;44.92;;;14.35;;
75386;SDS011;63966;47.914;22.266;2022-12-18T05:46:43;51.70;;;14.93;;
75386;SDS011;63966;47.914;22.266;2022-12-18T05:49:46;42.35;;;12.50;;
75386;SDS011;63966;47.914;22.266;2022-12-18T05:52:50;46.35;;;16.25;;
75386;SDS011;63966;47.914;22.266;2022-12-18T05:55:53;51.67;;;14.98;;
75386;SDS011;63966;47.914;22.266;2022-12-18T05:58:57;44.35;;;13.15;;
75386;SDS011;63966;47.914;22.266;2022-12-18T06:02:00;52.38;;;14.70;;
75386;SDS011;63966;47.914;22.266;2022-12-18T06:05:04;52.15;;;15.27;;
75386;SDS011;63966;47.914;22.266;2022-12-18T06:08:08;55.53;;;15.17;;
75386;SDS011;63966;47.914;22.266;2022-12-18T06:11:12;50.60;;;14.63;;
75386;SDS011;63966;47.914;22.266;2022-12-18T06:14:19;35.40;;;12.30;;
75386;SDS011;63966;47.914;22.266;2022-12-18T06:17:22;52.77;;;14.00;;
75386;SDS011;63966;47.914;22.266;2022-12-18T06:20:30;46.78;;;14.77;;
75386;SDS011;63966;47.914;22.266;2022-12-18T06:23:35;51.50;;;13.95;;
75386;SDS011;63966;47.914;22.266;2022-12-18T06:26:39;51.67;;;15.00;;
75386;SDS011;63966;47.914;22.266;2022-12-18T06:29:42;48.42;;;16.02;;
75386;SDS011;63966;47.914;22.266;2022-12-18T06:32:47;47.40;;;14.10;;
75386;SDS011;63966;47.914;22.266;2022-12-18T06:36:04;45.60;;;12.50;;
75386;SDS011;63966;47.914;22.266;2022-12-18T06:39:10;47.33;;;14.33;;
75386;SDS011;63966;47.914;22.266;2022-12-18T06:42:14;44.63;;;13.52;;
75386;SDS011;63966;47.914;22.266;2022-12-18T06:45:17;47.25;;;13.85;;
75386;SDS011;63966;47.914;22.266;2022-12-18T06:48:20;50.97;;;15.07;;
75386;SDS011;63966;47.914;22.266;2022-12-18T06:51:25;50.78;;;13.77;;
75386;SDS011;63966;47.914;22.266;2022-12-18T06:54:28;56.95;;;14.18;;
75386;SDS011;63966;47.914;22.266;2022-12-18T06:57:31;46.58;;;13.68;;
75386;SDS011;63966;47.914;22.266;2022-12-18T07:00:35;47.95;;;15.65;;
75386;SDS011;63966;47.914;22.266;2022-12-18T07:03:39;46.70;;;15.27;;
75386;SDS011;63966;47.914;22.266;2022-12-18T07:06:44;48.85;;;15.73;;
75386;SDS011;63966;47.914;22.266;2022-12-18T07:09:49;39.63;;;11.77;;
75386;SDS011;63966;47.914;22.266;2022-12-18T07:12:52;49.08;;;14.23;;
75386;SDS011;63966;47.914;22.266;2022-12-18T07:16:02;43.47;;;13.25;;
75386;SDS011;63966;47.914;22.266;2022-12-18T07:19:19;45.77;;;13.97;;
75386;SDS011;63966;47.914;22.266;2022-12-18T07:22:23;45.15;;;12.93;;
75386;SDS011;63966;47.914;22.266;2022-12-18T07:25:28;39.13;;;13.32;;
75386;SDS011;63966;47.914;22.266;2022-12-18T07:28:32;44.40;;;13.18;;
75386;SDS011;63966;47.914;22.266;2022-12-18T07:31:36;40.17;;;13.17;;
75386;SDS011;63966;47.914;22.266;2022-12-18T07:34:39;43.58;;;12.98;;
75386;SDS011;63966;47.914;22.266;2022-12-18T07:37:43;43.65;;;13.35;;
75386;SDS011;63966;47.914;22.266;2022-12-18T07:40:47;38.10;;;12.25;;
75386;SDS011;63966;47.914;22.266;2022-12-18T07:43:50;40.43;;;12.97;;
75386;SDS011;63966;47.914;22.266;2022-12-18T07:46:54;45.25;;;13.35;;
75386;SDS011;63966;47.914;22.266;2022-12-18T07:49:57;45.17;;;12.57;;
75386;SDS011;63966;47.914;22.266;2022-12-18T07:53:00;48.75;;;13.45;;
75386;SDS011;63966;47.914;22.266;2022-12-18T07:56:07;42.43;;;13.37;;
75386;SDS011;63966;47.914;22.266;2022-12-18T07:59:30;43.22;;;13.52;;
75386;SDS011;63966;47.914;22.266;2022-12-18T08:02:33;42.38;;;13.00;;
75386;SDS011;63966;47.914;22.266;2022-12-18T08:05:37;34.25;;;10.63;;
75386;SDS011;63966;47.914;22.266;2022-12-18T08:08:41;40.13;;;12.43;;
75386;SDS011;63966;47.914;22.266;2022-12-18T08:11:44;43.33;;;12.13;;
75386;SDS011;63966;47.914;22.266;2022-12-18T08:14:48;41.90;;;13.18;;
75386;SDS011;63966;47.914;22.266;2022-12-18T08:17:51;39.87;;;12.43;;
75386;SDS011;63966;47.914;22.266;2022-12-18T08:21:02;38.78;;;11.40;;
75386;SDS011;63966;47.914;22.266;2022-12-18T08:24:14;32.53;;;10.68;;
75386;SDS011;63966;47.914;22.266;2022-12-18T08:27:18;44.30;;;13.20;;
75386;SDS011;63966;47.914;22.266;2022-12-18T08:30:31;47.67;;;12.40;;
75386;SDS011;63966;47.914;22.266;2022-12-18T08:33:35;37.10;;;11.27;;
75386;SDS011;63966;47.914;22.266;2022-12-18T08:36:40;31.63;;;11.70;;
75386;SDS011;63966;47.914;22.266;2022-12-18T08:39:44;35.83;;;11.57;;
75386;SDS011;63966;47.914;22.266;2022-12-18T08:42:47;35.67;;;12.43;;
75386;SDS011;63966;47.914;22.266;2022-12-18T08:46:09;47.90;;;13.18;;
75386;SDS011;63966;47.914;22.266;2022-12-18T08:49:14;36.97;;;11.50;;
75386;SDS011;63966;47.914;22.266;2022-12-18T08:52:17;41.47;;;11.87;;
75386;SDS011;63966;47.914;22.266;2022-12-18T08:55:21;40.53;;;13.38;;
75386;SDS011;63966;47.914;22.266;2022-12-18T08:58:24;36.72;;;11.82;;
75386;SDS011;63966;47.914;22.266;2022-12-18T09:01:28;36.45;;;11.27;;
75386;SDS011;63966;47.914;22.266;2022-12-18T09:04:32;41.28;;;12.65;;
75386;SDS011;63966;47.914;22.266;2022-12-18T09:07:36;38.28;;;12.63;;
75386;SDS011;63966;47.914;22.266;2022-12-18T09:10:46;42.03;;;12.27;;
75386;SDS011;63966;47.914;22.266;2022-12-18T09:13:51;37.13;;;11.47;;
75386;SDS011;63966;47.914;22.266;2022-12-18T09:16:56;40.05;;;10.63;;
75386;SDS011;63966;47.914;22.266;2022-12-18T09:19:59;36.83;;;13.10;;
75386;SDS011;63966;47.914;22.266;2022-12-18T09:23:03;35.97;;;11.97;;
75386;SDS011;63966;47.914;22.266;2022-12-18T09:26:08;27.63;;;9.13;;
75386;SDS011;63966;47.914;22.266;2022-12-18T09:29:14;44.83;;;13.63;;
75386;SDS011;63966;47.914;22.266;2022-12-18T09:32:20;38.80;;;11.05;;
75386;SDS011;63966;47.914;22.266;2022-12-18T09:35:24;33.63;;;10.93;;
75386;SDS011;63966;47.914;22.266;2022-12-18T09:38:27;34.88;;;10.10;;
75386;SDS011;63966;47.914;22.266;2022-12-18T09:44:39;35.13;;;11.50;;
75386;SDS011;63966;47.914;22.266;2022-12-18T09:47:48;24.83;;;8.93;;
75386;SDS011;63966;47.914;22.266;2022-12-18T09:50:55;36.35;;;11.13;;
75386;SDS011;63966;47.914;22.266;2022-12-18T09:54:04;36.13;;;11.63;;
75386;SDS011;63966;47.914;22.266;2022-12-18T09:57:30;32.67;;;11.70;;
75386;SDS011;63966;47.914;22.266;2022-12-18T10:00:39;33.55;;;10.98;;
75386;SDS011;63966;47.914;22.266;2022-12-18T10:03:44;33.10;;;11.77;;
75386;SDS011;63966;47.914;22.266;2022-12-18T10:09:53;33.17;;;10.73;;
75386;SDS011;63966;47.914;22.266;2022-12-18T10:13:12;28.38;;;9.60;;
75386;SDS011;63966;47.914;22.266;2022-12-18T10:19:38;23.83;;;7.40;;
75386;SDS011;63966;47.914;22.266;2022-12-18T10:26:23;35.08;;;11.10;;
75386;SDS011;63966;47.914;22.266;2022-12-18T10:29:28;31.95;;;10.63;;
75386;SDS011;63966;47.914;22.266;2022-12-18T10:32:31;39.30;;;12.30;;
75386;SDS011;63966;47.914;22.266;2022-12-18T10:35:35;32.13;;;9.50;;
75386;SDS011;63966;47.914;22.266;2022-12-18T10:38:42;32.60;;;10.70;;
75386;SDS011;63966;47.914;22.266;2022-12-18T10:41:46;36.23;;;11.50;;
75386;SDS011;63966;47.914;22.266;2022-12-18T10:45:00;33.72;;;12.27;;
75386;SDS011;63966;47.914;22.266;2022-12-18T10:48:21;35.97;;;11.02;;
75386;SDS011;63966;47.914;22.266;2022-12-18T10:51:35;32.50;;;11.20;;
75386;SDS011;63966;47.914;22.266;2022-12-18T10:54:45;33.80;;;10.63;;
75386;SDS011;63966;47.914;22.266;2022-12-18T10:58:01;32.00;;;11.90;;
75386;SDS011;63966;47.914;22.266;2022-12-18T11:01:28;36.72;;;10.82;;
75386;SDS011;63966;47.914;22.266;2022-12-18T11:04:52;40.30;;;12.83;;
75386;SDS011;63966;47.914;22.266;2022-12-18T11:07:56;29.45;;;9.88;;
75386;SDS011;63966;47.914;22.266;2022-12-18T11:11:01;30.83;;;9.07;;
75386;SDS011;63966;47.914;22.266;2022-12-18T11:14:05;26.52;;;9.60;;
75386;SDS011;63966;47.914;22.266;2022-12-18T11:20:32;24.20;;;8.55;;
75386;SDS011;63966;47.914;22.266;2022-12-18T11:23:49;30.33;;;10.10;;
75386;SDS011;63966;47.914;22.266;2022-12-18T11:26:55;28.35;;;8.55;;
75386;SDS011;63966;47.914;22.266;2022-12-18T11:30:49;33.75;;;12.48;;
75386;SDS011;63966;47.914;22.266;2022-12-18T11:33:38;30.27;;;10.32;;
75386;SDS011;63966;47.914;22.266;2022-12-18T11:37:07;37.47;;;11.98;;
75386;SDS011;63966;47.914;22.266;2022-12-18T11:40:14;33.27;;;12.57;;
75386;SDS011;63966;47.914;22.266;2022-12-18T11:43:31;29.92;;;9.07;;
75386;SDS011;63966;47.914;22.266;2022-12-18T11:46:46;26.95;;;7.72;;
75386;SDS011;63966;47.914;22.266;2022-12-18T11:50:02;34.03;;;10.25;;
75386;SDS011;63966;47.914;22.266;2022-12-18T11:53:13;31.80;;;10.20;;
75386;SDS011;63966;47.914;22.266;2022-12-18T12:03:17;32.92;;;11.45;;
75386;SDS011;63966;47.914;22.266;2022-12-18T12:26:53;28.90;;;9.32;;
75386;SDS011;63966;47.914;22.266;2022-12-18T12:34:01;28.27;;;9.60;;
75386;SDS011;63966;47.914;22.266;2022-12-18T12:40:42;30.48;;;11.38;;
75386;SDS011;63966;47.914;22.266;2022-12-18T12:44:00;38.00;;;14.27;;
75386;SDS011;63966;47.914;22.266;2022-12-18T12:47:22;34.33;;;11.03;;
75386;SDS011;63966;47.914;22.266;2022-12-18T12:50:30;31.15;;;10.93;;
75386;SDS011;63966;47.914;22.266;2022-12-18T12:53:37;31.38;;;10.77;;
75386;SDS011;63966;47.914;22.266;2022-12-18T13:03:01;28.40;;;9.80;;
75386;SDS011;63966;47.914;22.266;2022-12-18T13:10:48;41.50;;;15.45;;
75386;SDS011;63966;47.914;22.266;2022-12-18T13:13:28;35.43;;;12.30;;
75386;SDS011;63966;47.914;22.266;2022-12-18T13:17:13;33.65;;;12.35;;
75386;SDS011;63966;47.914;22.266;2022-12-18T13:20:22;30.73;;;11.57;;
75386;SDS011;63966;47.914;22.266;2022-12-18T13:23:39;31.30;;;9.82;;
75386;SDS011;63966;47.914;22.266;2022-12-18T13:26:43;37.67;;;13.20;;
75386;SDS011;63966;47.914;22.266;2022-12-18T13:29:47;31.92;;;11.07;;
75386;SDS011;63966;47.914;22.266;2022-12-18T13:33:12;33.42;;;11.40;;
75386;SDS011;63966;47.914;22.266;2022-12-18T13:39:31;36.42;;;10.80;;
75386;SDS011;63966;47.914;22.266;2022-12-18T13:42:40;36.80;;;11.90;;
75386;SDS011;63966;47.914;22.266;2022-12-18T13:52:41;28.90;;;10.38;;
75386;SDS011;63966;47.914;22.266;2022-12-18T13:55:46;32.88;;;11.02;;
75386;SDS011;63966;47.914;22.266;2022-12-18T14:02:21;31.90;;;9.60;;
75386;SDS011;63966;47.914;22.266;2022-12-18T14:05:32;33.50;;;11.52;;
75386;SDS011;63966;47.914;22.266;2022-12-18T14:08:41;34.75;;;10.65;;
75386;SDS011;63966;47.914;22.266;2022-12-18T14:11:49;29.15;;;10.38;;
75386;SDS011;63966;47.914;22.266;2022-12-18T14:14:54;31.13;;;10.05;;
75386;SDS011;63966;47.914;22.266;2022-12-18T14:17:58;33.78;;;11.05;;
75386;SDS011;63966;47.914;22.266;2022-12-18T14:24:31;52.77;;;18.73;;
75386;SDS011;63966;47.914;22.266;2022-12-18T14:27:36;74.53;;;22.17;;
75386;SDS011;63966;47.914;22.266;2022-12-18T14:30:45;44.33;;;16.25;;
75386;SDS011;63966;47.914;22.266;2022-12-18T14:33:49;31.40;;;11.55;;
75386;SDS011;63966;47.914;22.266;2022-12-18T14:36:53;35.78;;;12.13;;
75386;SDS011;63966;47.914;22.266;2022-12-18T14:40:04;40.35;;;14.02;;
75386;SDS011;63966;47.914;22.266;2022-12-18T14:43:12;41.70;;;14.77;;
75386;SDS011;63966;47.914;22.266;2022-12-18T14:49:34;50.90;;;17.65;;
75386;SDS011;63966;47.914;22.266;2022-12-18T14:52:39;46.70;;;16.77;;
75386;SDS011;63966;47.914;22.266;2022-12-18T14:55:45;54.35;;;20.92;;
75386;SDS011;63966;47.914;22.266;2022-12-18T14:58:51;53.92;;;18.95;;
75386;SDS011;63966;47.914;22.266;2022-12-18T15:11:54;38.00;;;11.63;;
75386;SDS011;63966;47.914;22.266;2022-12-18T15:15:00;47.33;;;17.13;;
75386;SDS011;63966;47.914;22.266;2022-12-18T15:18:09;55.53;;;19.17;;
75386;SDS011;63966;47.914;22.266;2022-12-18T15:21:16;51.23;;;18.70;;
75386;SDS011;63966;47.914;22.266;2022-12-18T15:24:24;55.22;;;18.92;;
75386;SDS011;63966;47.914;22.266;2022-12-18T15:27:33;71.78;;;23.85;;
75386;SDS011;63966;47.914;22.266;2022-12-18T15:30:40;69.07;;;25.97;;
75386;SDS011;63966;47.914;22.266;2022-12-18T15:37:16;65.07;;;22.92;;
75386;SDS011;63966;47.914;22.266;2022-12-18T15:40:21;62.25;;;22.25;;
75386;SDS011;63966;47.914;22.266;2022-12-18T15:43:29;54.73;;;20.83;;
75386;SDS011;63966;47.914;22.266;2022-12-18T15:46:35;68.22;;;23.60;;
75386;SDS011;63966;47.914;22.266;2022-12-18T15:49:40;67.10;;;22.67;;
75386;SDS011;63966;47.914;22.266;2022-12-18T15:52:45;67.88;;;25.30;;
75386;SDS011;63966;47.914;22.266;2022-12-18T15:55:51;63.17;;;23.85;;
75386;SDS011;63966;47.914;22.266;2022-12-18T15:59:14;62.33;;;23.20;;
75386;SDS011;63966;47.914;22.266;2022-12-18T16:02:20;70.80;;;24.13;;
75386;SDS011;63966;47.914;22.266;2022-12-18T16:05:25;50.13;;;18.97;;
75386;SDS011;63966;47.914;22.266;2022-12-18T16:08:30;57.25;;;21.55;;
75386;SDS011;63966;47.914;22.266;2022-12-18T16:11:35;51.38;;;19.27;;
75386;SDS011;63966;47.914;22.266;2022-12-18T16:14:41;47.92;;;17.15;;
75386;SDS011;63966;47.914;22.266;2022-12-18T16:17:45;56.37;;;19.43;;
75386;SDS011;63966;47.914;22.266;2022-12-18T16:20:50;70.10;;;22.42;;
75386;SDS011;63966;47.914;22.266;2022-12-18T16:23:54;55.90;;;21.73;;
75386;SDS011;63966;47.914;22.266;2022-12-18T16:26:58;55.67;;;19.50;;
75386;SDS011;63966;47.914;22.266;2022-12-18T16:30:03;49.53;;;16.52;;
75386;SDS011;63966;47.914;22.266;2022-12-18T16:33:08;37.55;;;13.18;;
75386;SDS011;63966;47.914;22.266;2022-12-18T16:36:12;38.80;;;15.00;;
75386;SDS011;63966;47.914;22.266;2022-12-18T16:39:16;34.85;;;11.85;;
75386;SDS011;63966;47.914;22.266;2022-12-18T16:42:20;36.55;;;12.60;;
75386;SDS011;63966;47.914;22.266;2022-12-18T16:45:24;39.65;;;12.80;;
75386;SDS011;63966;47.914;22.266;2022-12-18T16:48:27;37.77;;;12.77;;
75386;SDS011;63966;47.914;22.266;2022-12-18T16:51:33;39.45;;;12.52;;
75386;SDS011;63966;47.914;22.266;2022-12-18T16:54:36;37.08;;;13.38;;
75386;SDS011;63966;47.914;22.266;2022-12-18T16:57:40;37.50;;;13.15;;
75386;SDS011;63966;47.914;22.266;2022-12-18T17:00:44;38.47;;;12.30;;
75386;SDS011;63966;47.914;22.266;2022-12-18T17:03:54;37.70;;;13.63;;
75386;SDS011;63966;47.914;22.266;2022-12-18T17:07:05;32.92;;;11.88;;
75386;SDS011;63966;47.914;22.266;2022-12-18T17:10:08;32.00;;;11.00;;
75386;SDS011;63966;47.914;22.266;2022-12-18T17:13:16;36.40;;;12.52;;
75386;SDS011;63966;47.914;22.266;2022-12-18T17:16:26;30.27;;;10.75;;
75386;SDS011;63966;47.914;22.266;2022-12-18T17:19:30;38.27;;;11.70;;
75386;SDS011;63966;47.914;22.266;2022-12-18T17:22:34;32.47;;;12.23;;
75386;SDS011;63966;47.914;22.266;2022-12-18T17:25:38;29.88;;;10.95;;
75386;SDS011;63966;47.914;22.266;2022-12-18T17:28:42;31.88;;;11.23;;
75386;SDS011;63966;47.914;22.266;2022-12-18T17:31:46;28.73;;;11.05;;
75386;SDS011;63966;47.914;22.266;2022-12-18T17:34:51;42.63;;;13.60;;
75386;SDS011;63966;47.914;22.266;2022-12-18T17:37:54;41.38;;;13.88;;
75386;SDS011;63966;47.914;22.266;2022-12-18T17:40:59;59.13;;;19.73;;
75386;SDS011;63966;47.914;22.266;2022-12-18T17:44:07;76.65;;;24.02;;
75386;SDS011;63966;47.914;22.266;2022-12-18T17:47:11;76.43;;;22.65;;
75386;SDS011;63966;47.914;22.266;2022-12-18T17:50:15;40.53;;;14.50;;
75386;SDS011;63966;47.914;22.266;2022-12-18T17:53:19;33.17;;;11.85;;
75386;SDS011;63966;47.914;22.266;2022-12-18T17:56:23;29.25;;;11.23;;
75386;SDS011;63966;47.914;22.266;2022-12-18T17:59:28;35.78;;;11.50;;
75386;SDS011;63966;47.914;22.266;2022-12-18T18:02:32;38.40;;;11.73;;
75386;SDS011;63966;47.914;22.266;2022-12-18T18:05:37;45.75;;;12.43;;
75386;SDS011;63966;47.914;22.266;2022-12-18T18:08:42;48.97;;;16.08;;
75386;SDS011;63966;47.914;22.266;2022-12-18T18:11:46;44.93;;;14.20;;
75386;SDS011;63966;47.914;22.266;2022-12-18T18:15:09;50.88;;;16.00;;
75386;SDS011;63966;47.914;22.266;2022-12-18T18:18:12;43.95;;;16.38;;
75386;SDS011;63966;47.914;22.266;2022-12-18T18:21:18;45.90;;;15.77;;
75386;SDS011;63966;47.914;22.266;2022-12-18T18:24:23;45.47;;;15.93;;
75386;SDS011;63966;47.914;22.266;2022-12-18T18:27:27;51.75;;;19.15;;
75386;SDS011;63966;47.914;22.266;2022-12-18T18:30:40;39.17;;;16.42;;
75386;SDS011;63966;47.914;22.266;2022-12-18T18:33:44;28.35;;;11.90;;
75386;SDS011;63966;47.914;22.266;2022-12-18T18:36:47;33.55;;;12.15;;
75386;SDS011;63966;47.914;22.266;2022-12-18T18:39:51;35.33;;;13.70;;
75386;SDS011;63966;47.914;22.266;2022-12-18T18:42:55;36.83;;;14.00;;
75386;SDS011;63966;47.914;22.266;2022-12-18T18:46:00;38.15;;;15.95;;
75386;SDS011;63966;47.914;22.266;2022-12-18T18:49:05;42.22;;;14.68;;
75386;SDS011;63966;47.914;22.266;2022-12-18T18:52:09;37.37;;;13.63;;
75386;SDS011;63966;47.914;22.266;2022-12-18T18:55:12;39.03;;;14.88;;
75386;SDS011;63966;47.914;22.266;2022-12-18T18:58:27;44.10;;;14.75;;
75386;SDS011;63966;47.914;22.266;2022-12-18T19:01:31;44.28;;;16.52;;
75386;SDS011;63966;47.914;22.266;2022-12-18T19:04:35;47.40;;;16.92;;
75386;SDS011;63966;47.914;22.266;2022-12-18T19:07:47;62.67;;;22.83;;
75386;SDS011;63966;47.914;22.266;2022-12-18T19:10:51;56.70;;;21.95;;
75386;SDS011;63966;47.914;22.266;2022-12-18T19:13:59;63.87;;;24.07;;
75386;SDS011;63966;47.914;22.266;2022-12-18T19:17:07;53.10;;;20.55;;
75386;SDS011;63966;47.914;22.266;2022-12-18T19:20:10;51.22;;;20.13;;
75386;SDS011;63966;47.914;22.266;2022-12-18T19:23:14;48.97;;;19.67;;
75386;SDS011;63966;47.914;22.266;2022-12-18T19:26:19;47.80;;;17.50;;
75386;SDS011;63966;47.914;22.266;2022-12-18T19:29:31;51.72;;;18.40;;
75386;SDS011;63966;47.914;22.266;2022-12-18T19:32:34;47.45;;;18.00;;
75386;SDS011;63966;47.914;22.266;2022-12-18T19:35:38;59.08;;;20.73;;
75386;SDS011;63966;47.914;22.266;2022-12-18T19:38:42;69.72;;;23.75;;
75386;SDS011;63966;47.914;22.266;2022-12-18T19:41:47;65.30;;;23.48;;
75386;SDS011;63966;47.914;22.266;2022-12-18T19:44:50;58.20;;;23.10;;
75386;SDS011;63966;47.914;22.266;2022-12-18T19:47:54;69.47;;;22.83;;
75386;SDS011;63966;47.914;22.266;2022-12-18T19:51:10;60.53;;;21.70;;